sensor_id;sensor_type;location;lat;lon;timestamp;temperature;humidity
55091;DHT22;40985;53.180;5.800;2023-04-25T00:02:13;6.10;99.90
55091;DHT22;40985;53.180;5.800;2023-04-25T00:04:40;6.10;99.90
55091;DHT22;40985;53.180;5.800;2023-04-25T00:07:06;6.10;99.90
55091;DHT22;40985;53.180;5.800;2023-04-25T00:09:32;6.10;99.90
55091;DHT22;40985;53.180;5.800;2023-04-25T00:11:57;6.10;99.90
55091;DHT22;40985;53.180;5.800;2023-04-25T00:14:23;6.10;99.90
55091;DHT22;40985;53.180;5.800;2023-04-25T00:16:49;6.10;99.90
55091;DHT22;40985;53.180;5.800;2023-04-25T00:19:17;6.10;99.90
55091;DHT22;40985;53.180;5.800;2023-04-25T00:21:42;6.10;99.90
55091;DHT22;40985;53.180;5.800;2023-04-25T00:24:12;6.10;99.90
55091;DHT22;40985;53.180;5.800;2023-04-25T00:26:38;6.10;99.90
55091;DHT22;40985;53.180;5.800;2023-04-25T00:29:03;6.10;99.90
55091;DHT22;40985;53.180;5.800;2023-04-25T00:31:29;6.10;99.90
55091;DHT22;40985;53.180;5.800;2023-04-25T00:33:55;6.10;99.90
55091;DHT22;40985;53.180;5.800;2023-04-25T00:36:21;6.00;99.90
55091;DHT22;40985;53.180;5.800;2023-04-25T00:38:46;6.00;99.90
55091;DHT22;40985;53.180;5.800;2023-04-25T00:41:12;6.00;99.90
55091;DHT22;40985;53.180;5.800;2023-04-25T00:43:38;6.00;99.90
55091;DHT22;40985;53.180;5.800;2023-04-25T00:46:05;6.00;99.90
55091;DHT22;40985;53.180;5.800;2023-04-25T00:48:30;6.00;99.90
55091;DHT22;40985;53.180;5.800;2023-04-25T00:50:59;6.00;99.90
55091;DHT22;40985;53.180;5.800;2023-04-25T00:53:27;5.90;99.90
55091;DHT22;40985;53.180;5.800;2023-04-25T00:55:53;6.00;99.90
55091;DHT22;40985;53.180;5.800;2023-04-25T00:58:20;5.90;99.90
55091;DHT22;40985;53.180;5.800;2023-04-25T01:00:48;5.90;99.90
55091;DHT22;40985;53.180;5.800;2023-04-25T01:03:17;5.90;99.90
55091;DHT22;40985;53.180;5.800;2023-04-25T01:05:45;6.00;99.90
55091;DHT22;40985;53.180;5.800;2023-04-25T01:08:10;6.00;99.90
55091;DHT22;40985;53.180;5.800;2023-04-25T01:10:36;6.00;99.90
55091;DHT22;40985;53.180;5.800;2023-04-25T01:13:03;6.00;99.90
55091;DHT22;40985;53.180;5.800;2023-04-25T01:15:28;6.00;99.90
55091;DHT22;40985;53.180;5.800;2023-04-25T01:17:54;6.00;99.90
55091;DHT22;40985;53.180;5.800;2023-04-25T01:20:24;5.90;99.90
55091;DHT22;40985;53.180;5.800;2023-04-25T01:22:54;5.80;99.90
55091;DHT22;40985;53.180;5.800;2023-04-25T01:25:21;5.70;99.90
55091;DHT22;40985;53.180;5.800;2023-04-25T01:27:47;5.70;99.90
55091;DHT22;40985;53.180;5.800;2023-04-25T01:30:13;5.60;99.90
55091;DHT22;40985;53.180;5.800;2023-04-25T01:32:41;5.50;99.90
55091;DHT22;40985;53.180;5.800;2023-04-25T01:35:08;5.40;99.90
55091;DHT22;40985;53.180;5.800;2023-04-25T01:37:41;5.30;99.90
55091;DHT22;40985;53.180;5.800;2023-04-25T01:40:10;5.30;99.90
55091;DHT22;40985;53.180;5.800;2023-04-25T01:42:41;5.30;99.90
55091;DHT22;40985;53.180;5.800;2023-04-25T01:45:08;5.20;99.90
55091;DHT22;40985;53.180;5.800;2023-04-25T01:47:34;5.30;99.90
55091;DHT22;40985;53.180;5.800;2023-04-25T01:50:04;5.30;99.90
55091;DHT22;40985;53.180;5.800;2023-04-25T01:52:30;5.20;99.90
55091;DHT22;40985;53.180;5.800;2023-04-25T01:54:57;5.30;99.90
55091;DHT22;40985;53.180;5.800;2023-04-25T01:57:24;5.30;99.90
55091;DHT22;40985;53.180;5.800;2023-04-25T01:59:50;5.30;99.90
55091;DHT22;40985;53.180;5.800;2023-04-25T02:02:16;5.30;99.90
55091;DHT22;40985;53.180;5.800;2023-04-25T02:04:42;5.30;99.90
55091;DHT22;40985;53.180;5.800;2023-04-25T02:07:07;5.20;99.90
55091;DHT22;40985;53.180;5.800;2023-04-25T02:09:33;5.20;99.90
55091;DHT22;40985;53.180;5.800;2023-04-25T02:11:59;5.30;99.90
55091;DHT22;40985;53.180;5.800;2023-04-25T02:14:25;5.20;99.90
55091;DHT22;40985;53.180;5.800;2023-04-25T02:16:52;5.20;99.90
55091;DHT22;40985;53.180;5.800;2023-04-25T02:19:17;5.20;99.90
55091;DHT22;40985;53.180;5.800;2023-04-25T02:21:43;5.20;99.90
55091;DHT22;40985;53.180;5.800;2023-04-25T02:24:09;5.20;99.90
55091;DHT22;40985;53.180;5.800;2023-04-25T02:26:34;5.20;99.90
55091;DHT22;40985;53.180;5.800;2023-04-25T02:29:00;5.20;99.90
55091;DHT22;40985;53.180;5.800;2023-04-25T02:31:26;5.20;99.90
55091;DHT22;40985;53.180;5.800;2023-04-25T02:33:52;5.10;99.90
55091;DHT22;40985;53.180;5.800;2023-04-25T02:36:17;5.10;99.90
55091;DHT22;40985;53.180;5.800;2023-04-25T02:38:43;5.10;99.90
55091;DHT22;40985;53.180;5.800;2023-04-25T02:41:09;5.00;99.90
55091;DHT22;40985;53.180;5.800;2023-04-25T02:43:35;5.00;99.90
55091;DHT22;40985;53.180;5.800;2023-04-25T02:46:00;5.00;99.90
55091;DHT22;40985;53.180;5.800;2023-04-25T02:48:26;4.90;99.90
55091;DHT22;40985;53.180;5.800;2023-04-25T02:50:52;4.90;99.90
55091;DHT22;40985;53.180;5.800;2023-04-25T02:53:17;4.90;99.90
55091;DHT22;40985;53.180;5.800;2023-04-25T02:55:43;4.90;99.90
55091;DHT22;40985;53.180;5.800;2023-04-25T02:58:09;5.00;99.90
55091;DHT22;40985;53.180;5.800;2023-04-25T03:00:35;5.00;99.90
55091;DHT22;40985;53.180;5.800;2023-04-25T03:03:01;5.00;99.90
55091;DHT22;40985;53.180;5.800;2023-04-25T03:05:27;5.00;99.90
55091;DHT22;40985;53.180;5.800;2023-04-25T03:07:52;5.10;99.90
55091;DHT22;40985;53.180;5.800;2023-04-25T03:10:18;5.10;99.90
55091;DHT22;40985;53.180;5.800;2023-04-25T03:12:44;5.10;99.90
55091;DHT22;40985;53.180;5.800;2023-04-25T03:15:09;5.10;99.90
55091;DHT22;40985;53.180;5.800;2023-04-25T03:17:35;5.10;99.90
55091;DHT22;40985;53.180;5.800;2023-04-25T03:20:01;5.10;99.90
55091;DHT22;40985;53.180;5.800;2023-04-25T03:22:29;5.20;99.90
55091;DHT22;40985;53.180;5.800;2023-04-25T03:24:55;5.30;99.90
55091;DHT22;40985;53.180;5.800;2023-04-25T03:27:20;5.30;99.90
55091;DHT22;40985;53.180;5.800;2023-04-25T03:29:46;5.30;99.90
55091;DHT22;40985;53.180;5.800;2023-04-25T03:32:12;5.20;99.90
55091;DHT22;40985;53.180;5.800;2023-04-25T03:34:37;5.20;99.90
55091;DHT22;40985;53.180;5.800;2023-04-25T03:37:03;5.20;99.90
55091;DHT22;40985;53.180;5.800;2023-04-25T03:39:29;5.20;99.90
55091;DHT22;40985;53.180;5.800;2023-04-25T03:41:55;5.20;99.90
55091;DHT22;40985;53.180;5.800;2023-04-25T03:44:20;5.20;99.90
55091;DHT22;40985;53.180;5.800;2023-04-25T03:46:46;5.20;99.90
55091;DHT22;40985;53.180;5.800;2023-04-25T03:49:12;5.20;99.90
55091;DHT22;40985;53.180;5.800;2023-04-25T03:51:38;5.20;99.90
55091;DHT22;40985;53.180;5.800;2023-04-25T03:54:04;5.10;99.90
55091;DHT22;40985;53.180;5.800;2023-04-25T03:56:30;5.20;99.90
55091;DHT22;40985;53.180;5.800;2023-04-25T03:58:55;5.10;99.90
55091;DHT22;40985;53.180;5.800;2023-04-25T04:01:21;5.10;99.90
55091;DHT22;40985;53.180;5.800;2023-04-25T04:03:47;5.10;99.90
55091;DHT22;40985;53.180;5.800;2023-04-25T04:06:12;5.10;99.90
55091;DHT22;40985;53.180;5.800;2023-04-25T04:08:38;5.00;99.90
55091;DHT22;40985;53.180;5.800;2023-04-25T04:11:04;4.90;99.90
55091;DHT22;40985;53.180;5.800;2023-04-25T04:13:30;5.00;99.90
55091;DHT22;40985;53.180;5.800;2023-04-25T04:15:57;5.00;99.90
55091;DHT22;40985;53.180;5.800;2023-04-25T04:18:23;5.00;99.90
55091;DHT22;40985;53.180;5.800;2023-04-25T04:20:49;5.10;99.90
55091;DHT22;40985;53.180;5.800;2023-04-25T04:23:15;5.20;99.90
55091;DHT22;40985;53.180;5.800;2023-04-25T04:25:41;5.20;99.90
55091;DHT22;40985;53.180;5.800;2023-04-25T04:28:07;5.20;99.90
55091;DHT22;40985;53.180;5.800;2023-04-25T04:30:33;5.20;99.90
55091;DHT22;40985;53.180;5.800;2023-04-25T04:33:02;5.20;99.90
55091;DHT22;40985;53.180;5.800;2023-04-25T04:35:28;5.20;99.90
55091;DHT22;40985;53.180;5.800;2023-04-25T04:37:54;5.20;99.90
55091;DHT22;40985;53.180;5.800;2023-04-25T04:40:20;5.20;99.90
55091;DHT22;40985;53.180;5.800;2023-04-25T04:42:47;5.20;99.90
55091;DHT22;40985;53.180;5.800;2023-04-25T04:45:14;5.20;99.90
55091;DHT22;40985;53.180;5.800;2023-04-25T04:47:40;5.20;99.90
55091;DHT22;40985;53.180;5.800;2023-04-25T04:50:10;5.20;99.90
55091;DHT22;40985;53.180;5.800;2023-04-25T04:52:37;5.10;99.90
55091;DHT22;40985;53.180;5.800;2023-04-25T04:55:04;5.10;99.90
55091;DHT22;40985;53.180;5.800;2023-04-25T04:57:30;5.20;99.90
55091;DHT22;40985;53.180;5.800;2023-04-25T04:59:56;5.10;99.90
55091;DHT22;40985;53.180;5.800;2023-04-25T05:02:22;5.20;99.90
55091;DHT22;40985;53.180;5.800;2023-04-25T05:04:48;5.20;99.90
55091;DHT22;40985;53.180;5.800;2023-04-25T05:07:13;5.20;99.90
55091;DHT22;40985;53.180;5.800;2023-04-25T05:09:39;5.10;99.90
55091;DHT22;40985;53.180;5.800;2023-04-25T05:12:05;5.10;99.90
55091;DHT22;40985;53.180;5.800;2023-04-25T05:14:31;5.00;99.90
55091;DHT22;40985;53.180;5.800;2023-04-25T05:16:56;5.10;99.90
55091;DHT22;40985;53.180;5.800;2023-04-25T05:19:23;5.10;99.90
55091;DHT22;40985;53.180;5.800;2023-04-25T05:21:49;5.10;99.90
55091;DHT22;40985;53.180;5.800;2023-04-25T05:24:15;5.00;99.90
55091;DHT22;40985;53.180;5.800;2023-04-25T05:26:41;5.00;99.90
55091;DHT22;40985;53.180;5.800;2023-04-25T05:29:06;5.10;99.90
55091;DHT22;40985;53.180;5.800;2023-04-25T05:31:32;5.20;99.90
55091;DHT22;40985;53.180;5.800;2023-04-25T05:33:58;5.20;99.90
55091;DHT22;40985;53.180;5.800;2023-04-25T05:36:24;5.30;99.90
55091;DHT22;40985;53.180;5.800;2023-04-25T05:38:50;5.30;99.90
55091;DHT22;40985;53.180;5.800;2023-04-25T05:41:15;5.40;99.90
55091;DHT22;40985;53.180;5.800;2023-04-25T05:43:41;5.40;99.90
55091;DHT22;40985;53.180;5.800;2023-04-25T05:46:12;5.50;99.90
55091;DHT22;40985;53.180;5.800;2023-04-25T05:48:38;5.50;99.90
55091;DHT22;40985;53.180;5.800;2023-04-25T05:51:04;5.50;99.90
55091;DHT22;40985;53.180;5.800;2023-04-25T05:53:29;5.50;99.90
55091;DHT22;40985;53.180;5.800;2023-04-25T05:55:55;5.40;99.90
55091;DHT22;40985;53.180;5.800;2023-04-25T05:58:21;5.30;99.90
55091;DHT22;40985;53.180;5.800;2023-04-25T06:00:46;5.10;99.90
55091;DHT22;40985;53.180;5.800;2023-04-25T06:03:12;5.00;99.90
55091;DHT22;40985;53.180;5.800;2023-04-25T06:05:43;4.80;99.90
55091;DHT22;40985;53.180;5.800;2023-04-25T06:08:10;4.80;99.90
55091;DHT22;40985;53.180;5.800;2023-04-25T06:10:36;4.70;99.90
55091;DHT22;40985;53.180;5.800;2023-04-25T06:13:03;4.70;99.90
55091;DHT22;40985;53.180;5.800;2023-04-25T06:15:29;4.70;99.90
55091;DHT22;40985;53.180;5.800;2023-04-25T06:17:55;4.80;99.90
55091;DHT22;40985;53.180;5.800;2023-04-25T06:20:21;5.00;99.90
55091;DHT22;40985;53.180;5.800;2023-04-25T06:22:49;5.10;99.90
55091;DHT22;40985;53.180;5.800;2023-04-25T06:25:15;5.20;99.90
55091;DHT22;40985;53.180;5.800;2023-04-25T06:27:41;5.30;99.90
55091;DHT22;40985;53.180;5.800;2023-04-25T06:30:07;5.60;99.90
55091;DHT22;40985;53.180;5.800;2023-04-25T06:32:33;5.70;99.90
55091;DHT22;40985;53.180;5.800;2023-04-25T06:35:00;5.70;99.90
55091;DHT22;40985;53.180;5.800;2023-04-25T06:37:26;5.80;99.90
55091;DHT22;40985;53.180;5.800;2023-04-25T06:39:51;6.00;99.90
55091;DHT22;40985;53.180;5.800;2023-04-25T06:42:17;6.10;99.90
55091;DHT22;40985;53.180;5.800;2023-04-25T06:44:43;6.10;99.90
55091;DHT22;40985;53.180;5.800;2023-04-25T06:47:08;5.90;99.90
55091;DHT22;40985;53.180;5.800;2023-04-25T06:49:34;5.50;99.90
55091;DHT22;40985;53.180;5.800;2023-04-25T06:52:00;5.10;99.90
55091;DHT22;40985;53.180;5.800;2023-04-25T06:54:26;5.00;99.90
55091;DHT22;40985;53.180;5.800;2023-04-25T06:56:54;5.00;99.90
55091;DHT22;40985;53.180;5.800;2023-04-25T06:59:19;5.00;99.90
55091;DHT22;40985;53.180;5.800;2023-04-25T07:01:45;5.10;99.90
55091;DHT22;40985;53.180;5.800;2023-04-25T07:04:11;5.30;99.90
55091;DHT22;40985;53.180;5.800;2023-04-25T07:06:37;5.30;99.90
55091;DHT22;40985;53.180;5.800;2023-04-25T07:09:11;5.40;99.90
55091;DHT22;40985;53.180;5.800;2023-04-25T07:11:37;5.50;99.90
55091;DHT22;40985;53.180;5.800;2023-04-25T07:14:03;5.60;99.90
55091;DHT22;40985;53.180;5.800;2023-04-25T07:16:29;5.70;99.90
55091;DHT22;40985;53.180;5.800;2023-04-25T07:18:54;5.70;99.90
55091;DHT22;40985;53.180;5.800;2023-04-25T07:21:20;5.60;99.90
55091;DHT22;40985;53.180;5.800;2023-04-25T07:23:46;5.60;99.90
55091;DHT22;40985;53.180;5.800;2023-04-25T07:26:12;5.50;99.90
55091;DHT22;40985;53.180;5.800;2023-04-25T07:28:38;5.50;99.90
55091;DHT22;40985;53.180;5.800;2023-04-25T07:31:03;5.60;99.90
55091;DHT22;40985;53.180;5.800;2023-04-25T07:33:29;5.90;99.90
55091;DHT22;40985;53.180;5.800;2023-04-25T07:35:55;6.00;99.90
55091;DHT22;40985;53.180;5.800;2023-04-25T07:38:21;6.30;99.90
55091;DHT22;40985;53.180;5.800;2023-04-25T07:40:48;6.40;99.90
55091;DHT22;40985;53.180;5.800;2023-04-25T07:43:13;6.40;99.90
55091;DHT22;40985;53.180;5.800;2023-04-25T07:45:42;6.30;99.90
55091;DHT22;40985;53.180;5.800;2023-04-25T07:48:08;6.30;99.90
55091;DHT22;40985;53.180;5.800;2023-04-25T07:50:34;6.30;99.90
55091;DHT22;40985;53.180;5.800;2023-04-25T07:53:00;6.50;99.90
55091;DHT22;40985;53.180;5.800;2023-04-25T07:55:25;6.70;99.90
55091;DHT22;40985;53.180;5.800;2023-04-25T07:57:51;6.70;99.90
55091;DHT22;40985;53.180;5.800;2023-04-25T08:00:17;6.90;99.90
55091;DHT22;40985;53.180;5.800;2023-04-25T08:02:43;6.90;99.90
55091;DHT22;40985;53.180;5.800;2023-04-25T08:05:09;7.00;99.90
55091;DHT22;40985;53.180;5.800;2023-04-25T08:07:37;6.90;99.90
55091;DHT22;40985;53.180;5.800;2023-04-25T08:10:05;7.00;99.90
55091;DHT22;40985;53.180;5.800;2023-04-25T08:12:32;7.00;99.90
55091;DHT22;40985;53.180;5.800;2023-04-25T08:14:58;7.00;99.90
55091;DHT22;40985;53.180;5.800;2023-04-25T08:17:23;7.20;99.90
55091;DHT22;40985;53.180;5.800;2023-04-25T08:19:49;7.10;99.90
55091;DHT22;40985;53.180;5.800;2023-04-25T08:22:15;7.10;99.90
55091;DHT22;40985;53.180;5.800;2023-04-25T08:24:41;7.30;99.90
55091;DHT22;40985;53.180;5.800;2023-04-25T08:27:07;7.30;99.90
55091;DHT22;40985;53.180;5.800;2023-04-25T08:29:34;7.30;99.90
55091;DHT22;40985;53.180;5.800;2023-04-25T08:32:00;7.30;99.90
55091;DHT22;40985;53.180;5.800;2023-04-25T08:34:26;7.20;99.90
55091;DHT22;40985;53.180;5.800;2023-04-25T08:36:52;7.20;99.90
55091;DHT22;40985;53.180;5.800;2023-04-25T08:39:18;7.00;99.90
55091;DHT22;40985;53.180;5.800;2023-04-25T08:41:44;7.00;99.90
55091;DHT22;40985;53.180;5.800;2023-04-25T08:44:11;7.00;99.90
55091;DHT22;40985;53.180;5.800;2023-04-25T08:46:40;6.90;99.90
55091;DHT22;40985;53.180;5.800;2023-04-25T08:49:07;7.00;99.90
55091;DHT22;40985;53.180;5.800;2023-04-25T08:51:36;7.00;99.90
55091;DHT22;40985;53.180;5.800;2023-04-25T08:54:10;7.20;99.90
55091;DHT22;40985;53.180;5.800;2023-04-25T08:56:38;7.30;99.90
55091;DHT22;40985;53.180;5.800;2023-04-25T08:59:04;7.30;99.90
55091;DHT22;40985;53.180;5.800;2023-04-25T09:01:34;7.60;99.90
55091;DHT22;40985;53.180;5.800;2023-04-25T09:04:00;7.60;99.90
55091;DHT22;40985;53.180;5.800;2023-04-25T09:06:25;7.70;99.90
55091;DHT22;40985;53.180;5.800;2023-04-25T09:08:53;7.90;99.90
55091;DHT22;40985;53.180;5.800;2023-04-25T09:11:19;7.80;99.90
55091;DHT22;40985;53.180;5.800;2023-04-25T09:13:45;7.60;99.90
55091;DHT22;40985;53.180;5.800;2023-04-25T09:16:11;7.70;99.90
55091;DHT22;40985;53.180;5.800;2023-04-25T09:18:37;7.50;99.90
55091;DHT22;40985;53.180;5.800;2023-04-25T09:21:07;7.10;99.90
55091;DHT22;40985;53.180;5.800;2023-04-25T09:23:49;6.90;99.90
55091;DHT22;40985;53.180;5.800;2023-04-25T09:26:18;6.80;99.90
55091;DHT22;40985;53.180;5.800;2023-04-25T09:28:45;6.90;99.90
55091;DHT22;40985;53.180;5.800;2023-04-25T09:31:11;7.10;99.90
55091;DHT22;40985;53.180;5.800;2023-04-25T09:33:37;7.30;99.90
55091;DHT22;40985;53.180;5.800;2023-04-25T09:36:07;7.40;99.90
55091;DHT22;40985;53.180;5.800;2023-04-25T09:38:46;7.60;99.90
55091;DHT22;40985;53.180;5.800;2023-04-25T09:41:12;7.30;99.90
55091;DHT22;40985;53.180;5.800;2023-04-25T09:43:39;7.10;99.90
55091;DHT22;40985;53.180;5.800;2023-04-25T09:46:09;7.30;99.90
55091;DHT22;40985;53.180;5.800;2023-04-25T09:48:36;7.20;99.90
55091;DHT22;40985;53.180;5.800;2023-04-25T09:51:10;7.40;99.90
55091;DHT22;40985;53.180;5.800;2023-04-25T09:53:38;7.70;99.90
55091;DHT22;40985;53.180;5.800;2023-04-25T09:56:06;7.80;99.90
55091;DHT22;40985;53.180;5.800;2023-04-25T09:58:33;7.80;99.90
55091;DHT22;40985;53.180;5.800;2023-04-25T10:01:04;7.90;99.90
55091;DHT22;40985;53.180;5.800;2023-04-25T10:03:32;8.00;99.90
55091;DHT22;40985;53.180;5.800;2023-04-25T10:06:02;7.90;99.90
55091;DHT22;40985;53.180;5.800;2023-04-25T10:08:32;7.90;99.90
55091;DHT22;40985;53.180;5.800;2023-04-25T10:11:04;8.00;99.90
55091;DHT22;40985;53.180;5.800;2023-04-25T10:13:31;7.80;99.90
55091;DHT22;40985;53.180;5.800;2023-04-25T10:15:58;7.90;99.90
55091;DHT22;40985;53.180;5.800;2023-04-25T10:18:29;8.00;99.90
55091;DHT22;40985;53.180;5.800;2023-04-25T10:20:56;8.00;99.90
55091;DHT22;40985;53.180;5.800;2023-04-25T10:23:23;8.30;99.90
55091;DHT22;40985;53.180;5.800;2023-04-25T10:25:50;8.10;99.90
55091;DHT22;40985;53.180;5.800;2023-04-25T10:28:16;8.30;99.90
55091;DHT22;40985;53.180;5.800;2023-04-25T10:33:36;8.80;99.90
55091;DHT22;40985;53.180;5.800;2023-04-25T10:36:14;8.70;99.90
55091;DHT22;40985;53.180;5.800;2023-04-25T10:38:42;8.10;99.90
55091;DHT22;40985;53.180;5.800;2023-04-25T10:41:09;7.80;99.90
55091;DHT22;40985;53.180;5.800;2023-04-25T10:43:49;7.30;99.90
55091;DHT22;40985;53.180;5.800;2023-04-25T10:46:26;6.80;99.90
55091;DHT22;40985;53.180;5.800;2023-04-25T10:48:59;6.50;99.90
55091;DHT22;40985;53.180;5.800;2023-04-25T10:51:27;6.40;99.90
55091;DHT22;40985;53.180;5.800;2023-04-25T10:54:07;6.50;99.90
55091;DHT22;40985;53.180;5.800;2023-04-25T10:56:33;6.80;99.90
55091;DHT22;40985;53.180;5.800;2023-04-25T10:59:07;7.10;99.90
55091;DHT22;40985;53.180;5.800;2023-04-25T11:04:33;7.30;99.90
55091;DHT22;40985;53.180;5.800;2023-04-25T11:07:10;7.50;99.90
55091;DHT22;40985;53.180;5.800;2023-04-25T11:09:40;7.60;99.90
55091;DHT22;40985;53.180;5.800;2023-04-25T11:12:08;7.60;99.90
55091;DHT22;40985;53.180;5.800;2023-04-25T11:14:34;8.00;99.90
55091;DHT22;40985;53.180;5.800;2023-04-25T11:17:00;8.10;99.90
55091;DHT22;40985;53.180;5.800;2023-04-25T11:19:28;8.40;99.90
55091;DHT22;40985;53.180;5.800;2023-04-25T11:22:01;8.20;99.90
55091;DHT22;40985;53.180;5.800;2023-04-25T11:24:32;8.70;99.90
55091;DHT22;40985;53.180;5.800;2023-04-25T11:26:59;8.60;99.90
55091;DHT22;40985;53.180;5.800;2023-04-25T11:29:26;8.60;99.90
55091;DHT22;40985;53.180;5.800;2023-04-25T11:31:53;8.60;99.90
55091;DHT22;40985;53.180;5.800;2023-04-25T11:34:21;8.20;99.90
55091;DHT22;40985;53.180;5.800;2023-04-25T11:36:47;7.90;99.90
55091;DHT22;40985;53.180;5.800;2023-04-25T11:39:13;7.80;99.90
55091;DHT22;40985;53.180;5.800;2023-04-25T11:41:41;8.10;99.90
55091;DHT22;40985;53.180;5.800;2023-04-25T11:44:07;8.00;99.90
55091;DHT22;40985;53.180;5.800;2023-04-25T11:46:36;8.00;99.90
55091;DHT22;40985;53.180;5.800;2023-04-25T11:49:02;7.90;99.90
55091;DHT22;40985;53.180;5.800;2023-04-25T11:51:28;7.90;99.90
55091;DHT22;40985;53.180;5.800;2023-04-25T11:53:53;8.10;99.90
55091;DHT22;40985;53.180;5.800;2023-04-25T11:56:20;8.10;99.90
55091;DHT22;40985;53.180;5.800;2023-04-25T11:59:00;8.50;99.90
55091;DHT22;40985;53.180;5.800;2023-04-25T12:01:29;8.60;99.90
55091;DHT22;40985;53.180;5.800;2023-04-25T12:03:56;8.70;99.90
55091;DHT22;40985;53.180;5.800;2023-04-25T12:06:26;8.50;99.90
55091;DHT22;40985;53.180;5.800;2023-04-25T12:09:07;8.40;99.90
55091;DHT22;40985;53.180;5.800;2023-04-25T12:12:01;8.10;99.90
55091;DHT22;40985;53.180;5.800;2023-04-25T12:14:33;8.00;99.90
55091;DHT22;40985;53.180;5.800;2023-04-25T12:17:01;8.20;99.90
55091;DHT22;40985;53.180;5.800;2023-04-25T12:19:35;8.40;99.90
55091;DHT22;40985;53.180;5.800;2023-04-25T12:22:02;8.40;99.90
55091;DHT22;40985;53.180;5.800;2023-04-25T12:24:28;8.60;99.90
55091;DHT22;40985;53.180;5.800;2023-04-25T12:27:00;9.00;99.90
55091;DHT22;40985;53.180;5.800;2023-04-25T12:29:28;8.90;99.90
55091;DHT22;40985;53.180;5.800;2023-04-25T12:31:55;9.10;99.90
55091;DHT22;40985;53.180;5.800;2023-04-25T12:34:21;9.50;99.90
55091;DHT22;40985;53.180;5.800;2023-04-25T12:36:50;9.90;99.90
55091;DHT22;40985;53.180;5.800;2023-04-25T12:39:20;9.70;99.90
55091;DHT22;40985;53.180;5.800;2023-04-25T12:41:47;9.80;99.90
55091;DHT22;40985;53.180;5.800;2023-04-25T12:44:14;9.50;99.90
55091;DHT22;40985;53.180;5.800;2023-04-25T12:46:40;9.50;99.90
55091;DHT22;40985;53.180;5.800;2023-04-25T12:49:07;9.40;99.90
55091;DHT22;40985;53.180;5.800;2023-04-25T12:51:34;9.40;99.90
55091;DHT22;40985;53.180;5.800;2023-04-25T12:54:00;9.40;99.90
55091;DHT22;40985;53.180;5.800;2023-04-25T12:56:29;8.80;99.90
55091;DHT22;40985;53.180;5.800;2023-04-25T12:58:55;9.30;99.90
55091;DHT22;40985;53.180;5.800;2023-04-25T13:01:21;9.50;99.90
55091;DHT22;40985;53.180;5.800;2023-04-25T13:03:48;9.30;99.90
55091;DHT22;40985;53.180;5.800;2023-04-25T13:06:14;9.20;99.90
55091;DHT22;40985;53.180;5.800;2023-04-25T13:08:40;9.00;99.90
55091;DHT22;40985;53.180;5.800;2023-04-25T13:11:07;8.60;99.90
55091;DHT22;40985;53.180;5.800;2023-04-25T13:13:33;8.50;99.90
55091;DHT22;40985;53.180;5.800;2023-04-25T13:16:04;8.90;99.90
55091;DHT22;40985;53.180;5.800;2023-04-25T13:18:30;8.70;99.90
55091;DHT22;40985;53.180;5.800;2023-04-25T13:20:57;9.00;99.90
55091;DHT22;40985;53.180;5.800;2023-04-25T13:23:24;8.80;99.90
55091;DHT22;40985;53.180;5.800;2023-04-25T13:25:50;9.10;99.90
55091;DHT22;40985;53.180;5.800;2023-04-25T13:28:15;9.00;99.90
55091;DHT22;40985;53.180;5.800;2023-04-25T13:30:42;9.20;99.90
55091;DHT22;40985;53.180;5.800;2023-04-25T13:33:08;9.40;99.90
55091;DHT22;40985;53.180;5.800;2023-04-25T13:35:36;9.70;99.90
55091;DHT22;40985;53.180;5.800;2023-04-25T13:38:02;9.60;99.90
55091;DHT22;40985;53.180;5.800;2023-04-25T13:40:28;9.20;99.90
55091;DHT22;40985;53.180;5.800;2023-04-25T13:42:55;9.60;99.90
55091;DHT22;40985;53.180;5.800;2023-04-25T13:45:21;9.40;99.90
55091;DHT22;40985;53.180;5.800;2023-04-25T13:47:47;9.20;99.90
55091;DHT22;40985;53.180;5.800;2023-04-25T13:50:13;9.10;99.90
55091;DHT22;40985;53.180;5.800;2023-04-25T13:52:39;9.10;99.90
55091;DHT22;40985;53.180;5.800;2023-04-25T13:55:06;8.60;99.90
55091;DHT22;40985;53.180;5.800;2023-04-25T13:57:33;8.40;99.90
55091;DHT22;40985;53.180;5.800;2023-04-25T13:59:59;7.90;99.90
55091;DHT22;40985;53.180;5.800;2023-04-25T14:02:25;7.60;99.90
55091;DHT22;40985;53.180;5.800;2023-04-25T14:04:51;7.40;99.90
55091;DHT22;40985;53.180;5.800;2023-04-25T14:07:17;7.20;99.90
55091;DHT22;40985;53.180;5.800;2023-04-25T14:09:44;7.40;99.90
55091;DHT22;40985;53.180;5.800;2023-04-25T14:12:10;7.80;99.90
55091;DHT22;40985;53.180;5.800;2023-04-25T14:14:36;7.70;99.90
55091;DHT22;40985;53.180;5.800;2023-04-25T14:17:03;7.70;99.90
55091;DHT22;40985;53.180;5.800;2023-04-25T14:19:29;7.70;99.90
55091;DHT22;40985;53.180;5.800;2023-04-25T14:21:55;7.80;99.90
55091;DHT22;40985;53.180;5.800;2023-04-25T14:24:21;8.20;99.90
55091;DHT22;40985;53.180;5.800;2023-04-25T14:26:46;8.40;99.90
55091;DHT22;40985;53.180;5.800;2023-04-25T14:29:12;8.10;99.90
55091;DHT22;40985;53.180;5.800;2023-04-25T14:31:39;8.10;99.90
55091;DHT22;40985;53.180;5.800;2023-04-25T14:34:05;7.80;99.90
55091;DHT22;40985;53.180;5.800;2023-04-25T14:36:31;7.60;99.90
55091;DHT22;40985;53.180;5.800;2023-04-25T14:38:58;7.50;99.90
55091;DHT22;40985;53.180;5.800;2023-04-25T14:41:27;7.40;99.90
55091;DHT22;40985;53.180;5.800;2023-04-25T14:43:52;7.40;99.90
55091;DHT22;40985;53.180;5.800;2023-04-25T14:46:19;7.40;99.90
55091;DHT22;40985;53.180;5.800;2023-04-25T14:48:46;7.60;99.90
55091;DHT22;40985;53.180;5.800;2023-04-25T14:51:12;7.80;99.90
55091;DHT22;40985;53.180;5.800;2023-04-25T14:53:39;7.80;99.90
55091;DHT22;40985;53.180;5.800;2023-04-25T14:56:05;8.00;99.90
55091;DHT22;40985;53.180;5.800;2023-04-25T14:58:31;8.20;99.90
55091;DHT22;40985;53.180;5.800;2023-04-25T15:00:56;8.10;99.90
55091;DHT22;40985;53.180;5.800;2023-04-25T15:03:22;8.00;99.90
55091;DHT22;40985;53.180;5.800;2023-04-25T15:05:48;7.70;99.90
55091;DHT22;40985;53.180;5.800;2023-04-25T15:08:13;8.00;99.90
55091;DHT22;40985;53.180;5.800;2023-04-25T15:10:39;8.00;99.90
55091;DHT22;40985;53.180;5.800;2023-04-25T15:13:05;8.00;99.90
55091;DHT22;40985;53.180;5.800;2023-04-25T15:15:31;8.00;99.90
55091;DHT22;40985;53.180;5.800;2023-04-25T15:17:57;7.60;99.90
55091;DHT22;40985;53.180;5.800;2023-04-25T15:20:23;7.50;99.90
55091;DHT22;40985;53.180;5.800;2023-04-25T15:22:49;7.40;99.90
55091;DHT22;40985;53.180;5.800;2023-04-25T15:25:15;7.40;99.90
55091;DHT22;40985;53.180;5.800;2023-04-25T15:27:43;7.30;99.90
55091;DHT22;40985;53.180;5.800;2023-04-25T15:30:13;7.10;99.90
55091;DHT22;40985;53.180;5.800;2023-04-25T15:32:41;6.70;99.90
55091;DHT22;40985;53.180;5.800;2023-04-25T15:35:07;6.80;99.90
55091;DHT22;40985;53.180;5.800;2023-04-25T15:37:34;6.80;99.90
55091;DHT22;40985;53.180;5.800;2023-04-25T15:42:30;6.70;99.90
55091;DHT22;40985;53.180;5.800;2023-04-25T15:44:56;6.90;99.90
55091;DHT22;40985;53.180;5.800;2023-04-25T15:47:21;7.10;99.90
55091;DHT22;40985;53.180;5.800;2023-04-25T15:49:47;7.10;99.90
55091;DHT22;40985;53.180;5.800;2023-04-25T15:52:12;7.20;99.90